createdAt,value
2019-05-02T00:00:57.118Z,18.33
2019-05-02T00:03:29.007Z,18.13
2019-05-02T00:06:03.002Z,18.93
2019-05-02T00:08:33.210Z,18.17
2019-05-02T00:11:05.667Z,17.30
2019-05-02T00:13:36.218Z,15.67
2019-05-02T00:16:09.132Z,15.70
2019-05-02T00:18:39.081Z,16.07
2019-05-02T00:21:10.109Z,14.90
2019-05-02T00:23:40.792Z,15.03
2019-05-02T00:26:11.628Z,14.53
2019-05-02T00:28:43.000Z,15.57
2019-05-02T00:31:16.840Z,13.30
2019-05-02T00:33:47.362Z,14.20
2019-05-02T00:36:17.845Z,15.63
2019-05-02T00:38:48.338Z,15.53
2019-05-02T00:41:18.904Z,13.23
2019-05-02T00:43:49.329Z,13.47
2019-05-02T00:46:19.859Z,11.77
2019-05-02T00:48:59.753Z,12.10
2019-05-02T00:51:29.467Z,12.10
2019-05-02T00:53:59.952Z,10.77
2019-05-02T00:56:30.378Z,12.13
2019-05-02T00:59:02.556Z,12.17
2019-05-02T01:01:51.808Z,11.20
2019-05-02T01:04:34.228Z,11.40
2019-05-02T01:07:05.360Z,11.70
2019-05-02T01:09:36.919Z,11.90
2019-05-02T01:12:08.311Z,11.00
2019-05-02T01:14:39.620Z,10.63
2019-05-02T01:17:10.036Z,10.13
2019-05-02T01:19:41.488Z,9.80
2019-05-02T01:22:15.837Z,9.10
2019-05-02T01:24:43.971Z,9.10
2019-05-02T01:27:45.436Z,9.17
2019-05-02T01:30:29.175Z,8.23
2019-05-02T01:33:14.955Z,7.83
2019-05-02T01:35:54.480Z,8.70
2019-05-02T01:38:33.690Z,7.90
2019-05-02T01:41:04.378Z,7.47
2019-05-02T01:43:34.795Z,7.50
2019-05-02T01:46:05.491Z,6.73
2019-05-02T01:48:40.307Z,6.40
2019-05-02T01:51:10.415Z,6.53
2019-05-02T01:53:40.509Z,5.70
2019-05-02T01:56:10.938Z,4.87
2019-05-02T01:58:41.351Z,4.90
2019-05-02T02:01:16.045Z,4.67
2019-05-02T02:03:45.647Z,5.13
2019-05-02T02:06:16.247Z,4.50
2019-05-02T02:08:46.744Z,4.37
2019-05-02T02:11:17.170Z,4.23
2019-05-02T02:13:47.587Z,3.77
2019-05-02T02:16:18.014Z,3.60
2019-05-02T02:19:04.073Z,3.40
2019-05-02T02:21:49.805Z,3.50
2019-05-02T02:24:34.672Z,4.00
2019-05-02T02:27:05.199Z,3.97
2019-05-02T02:29:38.958Z,3.47
2019-05-02T02:32:07.693Z,3.80
2019-05-02T02:34:38.118Z,3.17
2019-05-02T02:37:12.468Z,3.00
2019-05-02T02:39:40.705Z,3.27
2019-05-02T02:42:11.143Z,3.40
2019-05-02T02:44:48.736Z,3.70
2019-05-02T02:47:20.987Z,3.30
2019-05-02T02:49:55.723Z,2.87
2019-05-02T02:52:23.649Z,2.80
2019-05-02T02:54:54.135Z,2.93
2019-05-02T02:57:28.166Z,2.70
2019-05-02T03:00:06.302Z,2.97
2019-05-02T03:02:28.687Z,2.60
2019-05-02T03:04:59.251Z,3.17
2019-05-02T03:07:29.904Z,3.00
2019-05-02T03:10:06.098Z,2.27
2019-05-02T03:12:50.679Z,2.50
2019-05-02T03:15:28.167Z,2.77
2019-05-02T03:17:59.923Z,2.53
2019-05-02T03:20:26.662Z,2.57
2019-05-02T03:22:57.298Z,2.47
2019-05-02T03:25:49.189Z,3.17
2019-05-02T03:28:00.308Z,2.30
2019-05-02T03:30:37.421Z,2.23
2019-05-02T03:33:11.376Z,2.10
2019-05-02T03:35:44.757Z,2.60
2019-05-02T03:38:09.853Z,2.13
2019-05-02T03:40:41.347Z,2.37
2019-05-02T03:43:11.982Z,2.47
2019-05-02T03:45:43.189Z,2.30
2019-05-02T03:48:18.298Z,3.03
2019-05-02T03:50:45.972Z,2.20
2019-05-02T03:53:17.529Z,2.50
2019-05-02T03:55:48.927Z,2.50
2019-05-02T03:58:19.834Z,2.43
2019-05-02T04:01:00.522Z,2.27
2019-05-02T04:03:23.589Z,3.43
2019-05-02T04:05:54.523Z,2.87
2019-05-02T04:08:26.011Z,2.50
2019-05-02T04:11:25.509Z,2.87
2019-05-02T04:13:59.176Z,2.37
2019-05-02T04:16:30.404Z,2.30
2019-05-02T04:19:07.617Z,2.30
2019-05-02T04:21:38.042Z,2.60
2019-05-02T04:24:13.802Z,2.90
2019-05-02T04:26:52.139Z,2.63
2019-05-02T04:29:13.526Z,3.67
2019-05-02T04:31:43.955Z,2.90
2019-05-02T04:34:17.454Z,2.53
2019-05-02T04:36:47.221Z,2.63
2019-05-02T04:39:21.706Z,2.80
2019-05-02T04:41:50.780Z,3.40
2019-05-02T04:44:21.195Z,3.17
2019-05-02T04:46:51.634Z,2.73
2019-05-02T04:49:32.637Z,3.03
2019-05-02T04:52:04.720Z,2.90
2019-05-02T04:54:31.845Z,2.97
2019-05-02T04:57:01.967Z,3.07
2019-05-02T04:59:33.325Z,3.90
2019-05-02T05:02:04.959Z,3.50
2019-05-02T05:04:42.397Z,3.27
2019-05-02T05:07:09.295Z,3.33
2019-05-02T05:09:40.423Z,2.93
2019-05-02T05:12:11.059Z,2.87
2019-05-02T05:14:43.204Z,3.20
2019-05-02T05:17:13.550Z,3.17
2019-05-02T05:19:43.976Z,3.60
2019-05-02T05:22:14.506Z,3.10
2019-05-02T05:24:52.500Z,3.63
2019-05-02T05:27:23.193Z,2.87
2019-05-02T05:29:58.592Z,3.43
2019-05-02T05:32:28.046Z,3.60
2019-05-02T05:34:58.060Z,2.70
2019-05-02T05:37:29.492Z,3.43
2019-05-02T05:40:00.296Z,3.27
2019-05-02T05:42:33.332Z,3.50
2019-05-02T05:45:03.821Z,3.27
2019-05-02T05:47:35.057Z,3.70
2019-05-02T05:50:05.895Z,3.20
2019-05-02T05:52:38.853Z,3.30
2019-05-02T05:55:12.836Z,4.07
2019-05-02T05:57:41.279Z,3.90
2019-05-02T06:00:18.710Z,3.20
2019-05-02T06:02:55.523Z,2.97
2019-05-02T06:05:18.186Z,2.80
2019-05-02T06:07:48.817Z,2.87
2019-05-02T06:10:19.302Z,2.97
2019-05-02T06:12:49.791Z,2.60
2019-05-02T06:15:20.200Z,2.73
2019-05-02T06:17:51.306Z,3.00
2019-05-02T06:20:25.794Z,3.33
2019-05-02T06:22:54.956Z,2.43
2019-05-02T06:25:34.045Z,2.93
2019-05-02T06:28:00.172Z,2.70
2019-05-02T06:30:31.065Z,2.33
2019-05-02T06:33:01.695Z,2.33
2019-05-02T06:35:32.121Z,2.23
2019-05-02T06:38:02.544Z,2.73
2019-05-02T06:40:33.071Z,2.53
2019-05-02T06:43:04.223Z,2.60
2019-05-02T06:45:37.495Z,2.47
2019-05-02T06:48:17.268Z,2.60
2019-05-02T06:50:42.255Z,2.30
2019-05-02T06:53:12.782Z,2.10
2019-05-02T06:55:43.374Z,2.57
2019-05-02T06:58:13.950Z,2.20
2019-05-02T07:00:56.365Z,2.00
2019-05-02T07:03:18.179Z,2.00
2019-05-02T07:05:49.194Z,2.27
2019-05-02T07:08:19.921Z,2.33
2019-05-02T07:10:50.388Z,1.97
2019-05-02T07:13:20.990Z,1.67
2019-05-02T07:16:01.427Z,1.77
2019-05-02T07:18:35.373Z,1.50
2019-05-02T07:21:07.510Z,1.40
2019-05-02T07:23:38.079Z,1.50
2019-05-02T07:26:08.600Z,1.73
2019-05-02T07:28:40.353Z,1.40
2019-05-02T07:31:13.872Z,1.50
2019-05-02T07:33:44.405Z,1.20
2019-05-02T07:36:14.814Z,1.50
2019-05-02T07:38:45.252Z,1.47
2019-05-02T07:41:15.677Z,1.40
2019-05-02T07:43:46.162Z,1.10
2019-05-02T07:46:21.039Z,1.57
2019-05-02T07:48:53.911Z,1.50
2019-05-02T07:51:21.341Z,1.10
2019-05-02T07:53:55.589Z,1.50
2019-05-02T07:56:25.767Z,1.47
2019-05-02T07:58:56.142Z,0.90
2019-05-02T08:01:27.598Z,1.63
2019-05-02T08:04:02.797Z,1.20
2019-05-02T08:06:35.256Z,1.40
2019-05-02T08:09:07.292Z,1.40
2019-05-02T08:11:37.134Z,1.80
2019-05-02T08:14:06.531Z,1.50
2019-05-02T08:16:37.015Z,1.20
2019-05-02T08:19:07.442Z,1.30
2019-05-02T08:21:37.860Z,1.57
2019-05-02T08:24:08.300Z,1.60
2019-05-02T08:27:00.742Z,1.67
2019-05-02T08:29:31.167Z,2.40
2019-05-02T08:32:01.801Z,2.03
2019-05-02T08:34:35.400Z,1.80
2019-05-02T08:37:06.002Z,1.97
2019-05-02T08:39:36.564Z,2.10
2019-05-02T08:42:07.194Z,1.60
2019-05-02T08:44:50.343Z,1.80
2019-05-02T08:47:18.759Z,1.57
2019-05-02T08:49:43.184Z,2.00
2019-05-02T08:52:13.612Z,1.50
2019-05-02T08:54:44.144Z,1.40
2019-05-02T08:57:14.720Z,1.20
2019-05-02T08:59:45.351Z,1.32
2019-05-02T09:02:15.932Z,1.37
2019-05-02T09:04:57.954Z,0.98
2019-05-02T09:07:18.483Z,0.93
2019-05-02T09:09:49.180Z,1.20
2019-05-02T09:12:20.224Z,1.20
2019-05-02T09:14:52.066Z,1.30
2019-05-02T09:17:35.170Z,1.40
2019-05-02T09:20:02.327Z,1.10
2019-05-02T09:22:27.951Z,0.93
2019-05-02T09:24:58.379Z,0.97
2019-05-02T09:27:28.806Z,0.98
2019-05-02T09:29:59.232Z,0.90
2019-05-02T09:32:29.663Z,1.40
2019-05-02T09:35:02.159Z,0.87
2019-05-02T09:37:32.215Z,1.07
2019-05-02T09:40:06.841Z,1.30
2019-05-02T09:42:34.750Z,1.20
2019-05-02T09:45:06.047Z,0.90
2019-05-02T09:47:52.787Z,0.93
2019-05-02T09:50:15.447Z,1.03
2019-05-02T09:52:46.130Z,0.82
2019-05-02T09:55:17.963Z,0.80
2019-05-02T09:57:48.694Z,0.80
2019-05-02T10:00:52.526Z,0.90
2019-05-02T10:03:23.618Z,0.73
2019-05-02T10:05:54.062Z,0.80
2019-05-02T10:08:24.485Z,1.00
2019-05-02T10:10:55.217Z,0.77
2019-05-02T10:13:26.060Z,0.77
2019-05-02T10:15:56.838Z,1.30
2019-05-02T10:18:30.193Z,0.80
2019-05-02T10:20:59.678Z,1.00
2019-05-02T10:23:31.932Z,1.13
2019-05-02T10:26:02.879Z,1.00
2019-05-02T10:28:33.547Z,1.07
2019-05-02T10:31:04.061Z,0.73
2019-05-02T10:33:37.585Z,1.13
2019-05-02T10:36:06.656Z,0.77
2019-05-02T10:38:37.081Z,1.10
2019-05-02T10:41:08.636Z,1.07
2019-05-02T10:43:42.301Z,0.90
2019-05-02T10:46:37.740Z,0.90
2019-05-02T10:49:18.273Z,1.00
2019-05-02T10:51:51.234Z,1.22
2019-05-02T10:54:23.044Z,1.10
2019-05-02T10:56:53.078Z,1.10
2019-05-02T10:59:23.508Z,1.20
2019-05-02T11:02:05.611Z,0.90
2019-05-02T11:04:38.514Z,0.90
2019-05-02T11:07:09.072Z,1.40
2019-05-02T11:09:39.654Z,1.00
2019-05-02T11:12:11.942Z,0.88
2019-05-02T11:14:51.702Z,1.12
2019-05-02T11:17:26.769Z,0.70
2019-05-02T11:20:01.941Z,0.90
2019-05-02T11:22:32.579Z,1.10
2019-05-02T11:25:03.104Z,0.93
2019-05-02T11:27:33.520Z,0.60
2019-05-02T11:30:04.377Z,1.10
2019-05-02T11:32:34.794Z,0.85
2019-05-02T11:35:05.484Z,0.70
2019-05-02T11:37:35.956Z,0.80
2019-05-02T11:40:08.117Z,0.95
2019-05-02T11:42:41.646Z,0.95
2019-05-02T11:45:12.347Z,0.70
2019-05-02T11:47:42.786Z,0.98
2019-05-02T11:50:14.484Z,1.00
2019-05-02T11:52:44.971Z,0.70
2019-05-02T11:55:19.026Z,0.80
2019-05-02T11:57:47.711Z,0.88
2019-05-02T12:00:18.605Z,0.75
2019-05-02T12:03:07.975Z,0.82
2019-05-02T12:05:42.143Z,1.05
2019-05-02T12:08:12.787Z,0.82
2019-05-02T12:10:43.250Z,0.70
2019-05-02T12:13:15.998Z,0.88
2019-05-02T12:15:46.052Z,0.70
2019-05-02T12:18:16.579Z,0.90
2019-05-02T12:20:47.262Z,1.35
2019-05-02T12:23:17.745Z,0.80
2019-05-02T12:25:48.175Z,0.70
2019-05-02T12:28:18.594Z,0.72
2019-05-02T12:30:51.833Z,0.62
2019-05-02T12:33:23.910Z,0.80
2019-05-02T12:35:54.488Z,0.78
2019-05-02T12:38:24.911Z,1.00
2019-05-02T12:40:57.921Z,0.90
2019-05-02T12:43:28.631Z,0.70
2019-05-02T12:45:59.059Z,1.15
2019-05-02T12:48:29.690Z,0.90
2019-05-02T12:51:01.978Z,0.82
2019-05-02T12:53:32.674Z,0.78
2019-05-02T12:56:03.716Z,0.68
2019-05-02T12:58:34.315Z,0.82
2019-05-02T13:01:05.103Z,0.90
2019-05-02T13:03:52.842Z,0.93
2019-05-02T13:06:23.262Z,0.95
2019-05-02T13:08:53.791Z,0.80
2019-05-02T13:11:56.272Z,0.90
2019-05-02T13:14:31.722Z,0.93
2019-05-02T13:17:05.514Z,0.62
2019-05-02T13:19:40.059Z,0.98
2019-05-02T13:22:25.422Z,0.80
2019-05-02T13:24:59.229Z,0.62
2019-05-02T13:27:32.270Z,0.80
2019-05-02T13:30:03.349Z,0.88
2019-05-02T13:32:42.644Z,0.88
2019-05-02T13:35:19.270Z,0.93
2019-05-02T13:37:51.668Z,0.90
2019-05-02T13:40:26.939Z,0.55
2019-05-02T13:42:57.624Z,0.98
2019-05-02T13:45:43.790Z,0.60
2019-05-02T13:48:14.430Z,0.85
2019-05-02T13:50:44.974Z,0.60
2019-05-02T13:53:15.505Z,0.60
2019-05-02T13:56:05.386Z,0.85
2019-05-02T13:58:36.015Z,1.07
2019-05-02T14:01:07.671Z,1.80
2019-05-02T14:03:38.168Z,4.72
2019-05-02T14:06:08.729Z,8.35
2019-05-02T14:08:48.236Z,3.77
2019-05-02T14:11:36.515Z,1.92
2019-05-02T14:14:07.043Z,0.90
2019-05-02T14:16:37.576Z,1.50
2019-05-02T14:19:08.006Z,2.52
2019-05-02T14:21:38.426Z,5.12
2019-05-02T14:24:08.853Z,1.02
2019-05-02T14:26:39.354Z,1.60
2019-05-02T14:29:14.564Z,0.97
2019-05-02T14:31:42.458Z,1.80
2019-05-02T14:34:32.878Z,1.47
2019-05-02T14:37:03.522Z,0.80
2019-05-02T14:39:34.045Z,1.00
2019-05-02T14:42:04.497Z,1.00
2019-05-02T14:45:01.226Z,1.00
2019-05-02T14:47:10.116Z,1.73
2019-05-02T14:49:39.340Z,1.33
2019-05-02T14:52:09.757Z,5.33
2019-05-02T14:54:43.760Z,1.10
2019-05-02T14:57:17.080Z,1.30
2019-05-02T14:59:50.213Z,1.00
2019-05-02T15:02:39.209Z,0.80
2019-05-02T15:05:09.757Z,3.13
2019-05-02T15:07:42.060Z,9.03
2019-05-02T15:10:12.713Z,22.47
2019-05-02T15:12:43.190Z,25.10
2019-05-02T15:15:14.095Z,8.33
2019-05-02T15:17:44.550Z,4.20
2019-05-02T15:20:15.704Z,7.33
2019-05-02T15:22:46.121Z,4.30
2019-05-02T15:25:17.924Z,1.73
2019-05-02T15:27:49.888Z,2.57
2019-05-02T15:30:20.959Z,1.40
2019-05-02T15:32:59.913Z,1.77
2019-05-02T15:35:44.368Z,0.90
2019-05-02T15:38:24.325Z,1.90
2019-05-02T15:40:50.523Z,1.40
2019-05-02T15:43:18.934Z,9.07
2019-05-02T15:45:49.446Z,6.37
2019-05-02T15:48:26.027Z,4.83
2019-05-02T15:51:00.043Z,2.13
2019-05-02T15:53:33.590Z,24.67
2019-05-02T15:56:04.380Z,6.10
2019-05-02T15:58:35.059Z,2.57
2019-05-02T16:01:41.132Z,1.80
2019-05-02T16:04:12.569Z,3.37
2019-05-02T16:06:42.847Z,3.00
2019-05-02T16:09:57.249Z,3.60
2019-05-02T16:12:27.148Z,1.20
2019-05-02T16:14:57.825Z,1.47
2019-05-02T16:17:29.464Z,1.73
2019-05-02T16:20:10.396Z,1.43
2019-05-02T16:22:42.995Z,1.50
2019-05-02T16:25:12.202Z,4.00
2019-05-02T16:27:49.852Z,1.00
2019-05-02T16:30:23.964Z,0.90
2019-05-02T16:32:59.230Z,1.23
2019-05-02T16:35:31.170Z,1.10
2019-05-02T16:38:02.788Z,3.30
2019-05-02T16:40:34.874Z,1.60
2019-05-02T16:43:05.723Z,1.70
2019-05-02T16:45:36.256Z,1.37
2019-05-02T16:48:07.978Z,1.20
2019-05-02T16:50:38.439Z,1.20
2019-05-02T16:53:09.286Z,1.60
2019-05-02T16:55:43.431Z,1.70
2019-05-02T16:58:11.972Z,1.70
2019-05-02T17:00:45.524Z,1.60
2019-05-02T17:03:17.419Z,1.60
2019-05-02T17:05:49.425Z,1.77
2019-05-02T17:08:57.223Z,1.47
2019-05-02T17:11:31.366Z,1.87
2019-05-02T17:13:59.695Z,1.40
2019-05-02T17:16:31.557Z,1.83
2019-05-02T17:19:02.450Z,1.13
2019-05-02T17:21:52.174Z,1.40
2019-05-02T17:24:05.008Z,1.50
2019-05-02T17:26:36.207Z,1.10
2019-05-02T17:29:06.833Z,1.40
2019-05-02T17:31:44.205Z,1.23
2019-05-02T17:34:16.017Z,1.53
2019-05-02T17:36:48.444Z,1.67
2019-05-02T17:39:19.019Z,2.57
2019-05-02T17:41:49.458Z,1.67
2019-05-02T17:44:24.650Z,1.80
2019-05-02T17:46:58.086Z,1.53
2019-05-02T17:49:34.793Z,1.60
2019-05-02T17:52:24.445Z,1.53
2019-05-02T17:54:52.855Z,1.47
2019-05-02T17:57:23.712Z,1.50
2019-05-02T17:59:54.654Z,1.90
2019-05-02T18:02:26.297Z,1.60
2019-05-02T18:04:56.687Z,1.60
2019-05-02T18:07:31.810Z,1.80
2019-05-02T18:09:59.791Z,1.53
2019-05-02T18:12:32.376Z,1.60
2019-05-02T18:15:03.307Z,1.63
2019-05-02T18:17:33.978Z,2.27
2019-05-02T18:20:06.117Z,1.33
2019-05-02T18:22:39.917Z,1.27
2019-05-02T18:25:11.653Z,1.63
2019-05-02T18:27:43.154Z,1.33
2019-05-02T18:30:22.870Z,1.90
2019-05-02T18:32:52.899Z,2.10
2019-05-02T18:35:23.399Z,1.70
2019-05-02T18:37:53.826Z,1.80
2019-05-02T18:40:28.084Z,1.63
2019-05-02T18:43:01.353Z,1.70
2019-05-02T18:45:29.001Z,1.83
2019-05-02T18:48:02.287Z,1.80
2019-05-02T18:50:41.558Z,2.20
2019-05-02T18:53:10.341Z,1.63
2019-05-02T18:55:42.208Z,2.20
2019-05-02T18:58:13.073Z,2.73
2019-05-02T19:00:43.799Z,2.00
2019-05-02T19:03:17.077Z,1.90
2019-05-02T19:05:46.838Z,1.90
2019-05-02T19:08:28.184Z,1.67
2019-05-02T19:11:04.011Z,1.90
2019-05-02T19:13:22.322Z,1.47
2019-05-02T19:15:53.560Z,1.80
2019-05-02T19:18:24.011Z,1.77
2019-05-02T19:21:04.340Z,1.80
2019-05-02T19:23:35.612Z,1.70
2019-05-02T19:26:10.023Z,1.77
2019-05-02T19:29:08.619Z,2.40
2019-05-02T19:31:55.021Z,2.20
2019-05-02T19:34:26.973Z,1.70
2019-05-02T19:37:02.891Z,2.93
2019-05-02T19:39:32.310Z,1.77
2019-05-02T19:42:02.880Z,2.10
2019-05-02T19:44:34.111Z,2.33
2019-05-02T19:47:08.409Z,2.47
2019-05-02T19:49:37.334Z,2.80
2019-05-02T19:52:07.755Z,2.63
2019-05-02T19:54:41.157Z,2.50
2019-05-02T19:57:17.255Z,1.93
2019-05-02T19:59:47.233Z,3.00
2019-05-02T20:02:17.867Z,2.80
2019-05-02T20:04:48.387Z,2.40
2019-05-02T20:07:19.114Z,2.43
2019-05-02T20:09:49.587Z,2.43
2019-05-02T20:12:21.881Z,2.67
2019-05-02T20:14:52.423Z,2.27
2019-05-02T20:17:24.027Z,3.07
2019-05-02T20:19:57.637Z,3.53
2019-05-02T20:22:29.276Z,2.87
2019-05-02T20:25:03.125Z,3.27
2019-05-02T20:27:32.940Z,2.43
2019-05-02T20:30:04.034Z,4.30
2019-05-02T20:32:34.563Z,3.60
2019-05-02T20:35:05.351Z,3.13
2019-05-02T20:37:35.912Z,2.90
2019-05-02T20:40:06.862Z,3.17
2019-05-02T20:42:37.290Z,3.10
2019-05-02T20:45:08.026Z,3.20
2019-05-02T20:47:38.447Z,3.27
2019-05-02T20:50:08.983Z,2.90
2019-05-02T20:52:39.515Z,3.60
2019-05-02T20:55:12.136Z,3.43
2019-05-02T20:57:42.451Z,3.40
2019-05-02T21:00:23.498Z,4.13
2019-05-02T21:02:54.267Z,3.70
2019-05-02T21:05:32.007Z,3.50
2019-05-02T21:08:19.635Z,4.33
2019-05-02T21:10:52.297Z,3.57
2019-05-02T21:13:22.967Z,3.77
2019-05-02T21:15:53.599Z,3.33
2019-05-02T21:18:24.027Z,3.93
2019-05-02T21:20:55.479Z,3.40
2019-05-02T21:23:25.286Z,3.30
2019-05-02T21:25:56.653Z,4.03
2019-05-02T21:28:26.449Z,3.83
2019-05-02T21:30:57.075Z,3.57
2019-05-02T21:33:45.531Z,3.77
2019-05-02T21:36:15.943Z,3.70
2019-05-02T21:38:46.426Z,3.60
2019-05-02T21:41:17.011Z,4.23
2019-05-02T21:43:47.439Z,3.43
2019-05-02T21:46:17.865Z,3.63
2019-05-02T21:48:48.296Z,4.90
2019-05-02T21:51:44.832Z,5.03
2019-05-02T21:54:43.324Z,3.87
2019-05-02T21:57:23.070Z,4.70
2019-05-02T21:59:53.792Z,3.60
2019-05-02T22:02:24.326Z,3.57
2019-05-02T22:04:54.755Z,4.13
2019-05-02T22:07:25.182Z,3.37
2019-05-02T22:09:56.057Z,3.67
2019-05-02T22:12:26.640Z,4.30
2019-05-02T22:14:57.080Z,2.90
2019-05-02T22:17:27.575Z,3.47
2019-05-02T22:19:58.037Z,3.23
2019-05-02T22:22:28.456Z,3.43
2019-05-02T22:24:58.978Z,3.17
2019-05-02T22:27:29.417Z,3.20
2019-05-02T22:30:01.945Z,3.57
2019-05-02T22:32:32.205Z,3.97
2019-05-02T22:35:02.749Z,4.57
2019-05-02T22:37:34.707Z,3.53
2019-05-02T22:40:08.843Z,3.90
2019-05-02T22:42:39.293Z,3.27
2019-05-02T22:45:12.397Z,3.50
2019-05-02T22:47:42.592Z,4.27
2019-05-02T22:50:14.108Z,4.20
2019-05-02T22:52:44.744Z,3.40
2019-05-02T22:55:15.169Z,3.70
2019-05-02T22:57:45.606Z,3.30
2019-05-02T23:00:16.815Z,3.00
2019-05-02T23:02:47.314Z,3.13
2019-05-02T23:05:18.004Z,3.17
2019-05-02T23:07:48.446Z,3.60
2019-05-02T23:10:18.950Z,3.33
2019-05-02T23:12:51.662Z,3.47
2019-05-02T23:15:21.886Z,2.83
2019-05-02T23:17:52.507Z,3.27
2019-05-02T23:20:24.380Z,3.03
2019-05-02T23:22:54.991Z,3.00
2019-05-02T23:25:43.237Z,2.90
2019-05-02T23:28:17.551Z,3.90
2019-05-02T23:30:47.984Z,2.97
2019-05-02T23:33:19.020Z,3.10
2019-05-02T23:35:49.494Z,3.17
2019-05-02T23:38:21.717Z,3.40
2019-05-02T23:40:52.650Z,3.80
2019-05-02T23:43:26.315Z,2.87
2019-05-02T23:45:56.789Z,2.80
2019-05-02T23:48:27.213Z,3.33
2019-05-02T23:50:57.640Z,3.20
2019-05-02T23:53:28.072Z,3.00
2019-05-02T23:55:58.482Z,3.63
2019-05-02T23:58:28.925Z,3.37
